createdAt,value
2023-12-09T00:02:18.132Z,967.16
2023-12-09T00:07:30.168Z,967.17
2023-12-09T00:12:42.173Z,967.28
2023-12-09T00:17:54.919Z,967.32
2023-12-09T00:23:07.088Z,967.31
2023-12-09T00:28:19.175Z,967.23
2023-12-09T00:33:31.335Z,967.27
2023-12-09T00:38:43.340Z,967.27
2023-12-09T00:43:55.433Z,967.25
2023-12-09T00:49:07.523Z,967.14
2023-12-09T00:54:19.876Z,967.18
2023-12-09T00:59:32.015Z,967.25
2023-12-09T01:04:45.148Z,967.29
2023-12-09T01:09:57.232Z,967.26
2023-12-09T01:15:09.408Z,967.46
2023-12-09T01:20:22.037Z,967.55
2023-12-09T01:25:34.000Z,967.77
2023-12-09T01:30:46.081Z,967.7
2023-12-09T01:35:58.235Z,967.75
2023-12-09T01:41:10.708Z,967.77
2023-12-09T01:46:22.704Z,967.84
2023-12-09T01:51:34.796Z,967.93
2023-12-09T01:56:49.253Z,967.82
2023-12-09T02:02:01.363Z,968.02
2023-12-09T02:07:13.470Z,968.09
2023-12-09T02:12:28.199Z,968.14
2023-12-09T02:17:40.355Z,968.03
2023-12-09T02:22:52.452Z,967.9
2023-12-09T02:28:04.562Z,967.83
2023-12-09T02:33:16.674Z,967.78
2023-12-09T02:38:28.865Z,967.72
2023-12-09T02:43:41.010Z,967.73
2023-12-09T02:48:53.177Z,967.7
2023-12-09T02:54:05.458Z,967.57
2023-12-09T02:59:17.446Z,967.42
2023-12-09T03:04:30.292Z,967.25
2023-12-09T03:09:44.552Z,967.21
2023-12-09T03:14:57.589Z,967.22
2023-12-09T03:20:09.761Z,967.26
2023-12-09T03:25:22.125Z,967.22
2023-12-09T03:30:34.283Z,967.23
2023-12-09T03:35:46.438Z,967.18
2023-12-09T03:40:58.555Z,967.1
2023-12-09T03:46:10.642Z,967.06
2023-12-09T03:51:22.667Z,967.13
2023-12-09T03:56:34.655Z,967.21
2023-12-09T04:01:46.648Z,967.06
2023-12-09T04:06:58.668Z,967.09
2023-12-09T04:12:10.763Z,967.01
2023-12-09T04:17:22.952Z,967.18
2023-12-09T04:22:35.053Z,967.17
2023-12-09T04:27:47.027Z,967.27
2023-12-09T04:32:59.061Z,967.46
2023-12-09T04:38:11.229Z,967.35
2023-12-09T04:43:23.322Z,967.31
2023-12-09T04:48:37.398Z,967.34
2023-12-09T04:53:49.920Z,967.4
2023-12-09T04:59:01.894Z,967.4
2023-12-09T05:04:14.355Z,967.31
2023-12-09T05:09:27.077Z,967.28
2023-12-09T05:14:39.080Z,967.25
2023-12-09T05:19:51.190Z,967.22
2023-12-09T05:25:03.400Z,967.23
2023-12-09T05:30:15.420Z,967.04
2023-12-09T05:35:27.568Z,966.95
2023-12-09T05:40:39.533Z,966.92
2023-12-09T05:45:51.512Z,966.87
2023-12-09T05:51:03.645Z,966.81
2023-12-09T05:56:15.778Z,966.78
2023-12-09T06:01:28.471Z,966.82
2023-12-09T06:06:40.713Z,966.84
2023-12-09T06:11:52.842Z,966.87
2023-12-09T06:17:05.285Z,966.87
2023-12-09T06:22:17.566Z,966.77
2023-12-09T06:27:29.791Z,966.82
2023-12-09T06:32:41.842Z,966.86
2023-12-09T06:37:53.972Z,966.75
2023-12-09T06:43:05.940Z,966.46
2023-12-09T06:48:18.027Z,966.51
2023-12-09T06:53:30.130Z,966.66
2023-12-09T06:58:42.155Z,966.62
2023-12-09T07:03:54.281Z,966.53
2023-12-09T07:09:06.596Z,966.47
2023-12-09T07:14:18.690Z,966.62
2023-12-09T07:19:30.768Z,966.59
2023-12-09T07:24:43.406Z,966.58
2023-12-09T07:24:55.405Z,966.56
2023-12-09T07:30:07.460Z,966.67
2023-12-09T07:35:19.606Z,966.64
2023-12-09T07:40:31.727Z,966.59
2023-12-09T07:45:43.949Z,966.69
2023-12-09T07:50:55.933Z,966.54
2023-12-09T07:56:08.556Z,966.55
2023-12-09T08:01:20.555Z,966.46
2023-12-09T08:06:32.700Z,966.47
2023-12-09T08:11:44.685Z,966.4
2023-12-09T08:16:56.864Z,966.27
2023-12-09T08:22:08.886Z,966.3
2023-12-09T08:27:21.474Z,966.28
2023-12-09T08:32:33.570Z,966.36
2023-12-09T08:37:46.760Z,966.25
2023-12-09T08:42:58.714Z,966.18
2023-12-09T08:48:10.859Z,966.17
2023-12-09T08:53:22.994Z,966.06
2023-12-09T08:58:35.008Z,966.23
2023-12-09T09:03:47.114Z,966.2
2023-12-09T09:08:59.187Z,965.93
2023-12-09T09:14:11.191Z,965.95
2023-12-09T09:19:23.284Z,965.79
2023-12-09T09:24:35.436Z,965.97
2023-12-09T09:29:47.598Z,965.91
2023-12-09T09:34:59.784Z,965.88
2023-12-09T09:40:11.824Z,965.54
2023-12-09T09:45:27.581Z,965.42
2023-12-09T09:50:42.616Z,965.51
2023-12-09T09:55:54.680Z,965.46
2023-12-09T10:01:06.711Z,965.26
2023-12-09T10:06:18.811Z,965.32
2023-12-09T10:11:30.935Z,965.15
2023-12-09T10:16:43.201Z,965.17
2023-12-09T10:21:58.236Z,964.99
2023-12-09T10:27:10.437Z,964.65
2023-12-09T10:32:22.969Z,964.72
2023-12-09T10:37:35.112Z,964.41
2023-12-09T10:42:47.214Z,964.37
2023-12-09T10:47:59.371Z,964.18
2023-12-09T10:53:11.548Z,964.26
2023-12-09T10:58:23.564Z,964.22
2023-12-09T11:03:35.680Z,964.2
2023-12-09T11:08:47.684Z,964.14
2023-12-09T11:14:00.225Z,963.85
2023-12-09T11:19:12.508Z,963.54
2023-12-09T11:24:24.809Z,963.31
2023-12-09T11:29:36.780Z,963.07
2023-12-09T11:34:49.044Z,962.96
2023-12-09T11:40:01.212Z,962.95
2023-12-09T11:45:13.224Z,962.73
2023-12-09T11:50:25.206Z,962.52
2023-12-09T11:55:37.276Z,962.54
2023-12-09T12:00:49.297Z,962.45
2023-12-09T12:06:01.399Z,962.39
2023-12-09T12:11:13.716Z,962.19
2023-12-09T12:16:25.682Z,962.19
2023-12-09T12:21:37.889Z,961.96
2023-12-09T12:26:49.966Z,961.88
2023-12-09T12:32:02.081Z,961.77
2023-12-09T12:37:14.244Z,961.69
2023-12-09T12:42:30.527Z,961.62
2023-12-09T12:47:42.836Z,961.39
2023-12-09T12:52:54.844Z,961.2
2023-12-09T12:58:06.819Z,961.07
2023-12-09T13:03:18.819Z,961.15
2023-12-09T13:08:30.951Z,961.07
2023-12-09T13:13:43.037Z,960.93
2023-12-09T13:18:55.191Z,960.99
2023-12-09T13:24:07.278Z,960.62
2023-12-09T13:29:19.959Z,960.78
2023-12-09T13:34:32.202Z,960.73
2023-12-09T13:39:44.446Z,960.43
2023-12-09T13:44:56.552Z,960.29
2023-12-09T13:50:08.536Z,959.91
2023-12-09T13:55:20.558Z,959.55
2023-12-09T14:00:32.732Z,959.92
2023-12-09T14:05:45.025Z,959.54
2023-12-09T14:10:57.209Z,959.32
2023-12-09T14:16:09.298Z,959.51
2023-12-09T14:21:21.353Z,959.61
2023-12-09T14:26:35.363Z,959.5
2023-12-09T14:31:47.811Z,959.58
2023-12-09T14:36:59.780Z,959.44
2023-12-09T14:42:11.894Z,959.18
2023-12-09T14:47:23.903Z,958.96
2023-12-09T14:52:35.889Z,958.9
2023-12-09T14:57:48.027Z,958.78
2023-12-09T15:03:00.081Z,958.78
2023-12-09T15:08:12.032Z,958.5
2023-12-09T15:13:24.120Z,958.4
2023-12-09T15:18:36.158Z,958.26
2023-12-09T15:23:48.314Z,958.03
2023-12-09T15:29:00.468Z,957.93
2023-12-09T15:34:12.714Z,957.75
2023-12-09T15:39:24.895Z,957.48
2023-12-09T15:44:37.045Z,957.42
2023-12-09T15:49:49.014Z,957.26
2023-12-09T15:55:01.029Z,957.07
2023-12-09T16:00:13.134Z,956.89
2023-12-09T16:05:25.189Z,956.65
2023-12-09T16:10:37.480Z,956.54
2023-12-09T16:15:49.577Z,956.57
2023-12-09T16:21:04.111Z,956.47
2023-12-09T16:26:16.928Z,956.31
2023-12-09T16:31:29.077Z,956.05
2023-12-09T16:36:41.375Z,955.89
2023-12-09T16:41:53.348Z,955.73
2023-12-09T16:47:05.452Z,955.61
2023-12-09T16:52:17.609Z,955.26
2023-12-09T16:57:33.740Z,954.98
2023-12-09T17:02:45.896Z,954.93
2023-12-09T17:07:57.863Z,954.59
2023-12-09T17:13:09.909Z,954.59
2023-12-09T17:18:22.257Z,954.43
2023-12-09T17:23:34.450Z,954.34
2023-12-09T17:28:46.403Z,954.24
2023-12-09T17:33:58.453Z,954.21
2023-12-09T17:39:12.844Z,954.11
2023-12-09T17:44:24.837Z,953.84
2023-12-09T17:49:36.923Z,953.65
2023-12-09T17:54:48.964Z,953.56
2023-12-09T18:00:01.692Z,953.35
2023-12-09T18:05:13.959Z,953.3
2023-12-09T18:10:26.012Z,953.26
2023-12-09T18:15:38.035Z,953.41
2023-12-09T18:20:50.045Z,953.25
2023-12-09T18:26:02.015Z,953.19
2023-12-09T18:31:13.970Z,952.89
2023-12-09T18:36:25.936Z,952.87
2023-12-09T18:41:37.905Z,952.98
2023-12-09T18:46:49.888Z,953.03
2023-12-09T18:52:01.850Z,952.82
2023-12-09T18:57:13.820Z,952.85
2023-12-09T19:02:27.079Z,952.92
2023-12-09T19:07:39.234Z,953.04
2023-12-09T19:12:51.847Z,953.04
2023-12-09T19:18:04.490Z,953.03
2023-12-09T19:23:16.576Z,953
2023-12-09T19:28:28.693Z,953
2023-12-09T19:33:40.736Z,953.06
2023-12-09T19:38:52.743Z,953.22
2023-12-09T19:44:05.120Z,953.16
2023-12-09T19:49:17.289Z,953.34
2023-12-09T19:54:29.393Z,953.28
2023-12-09T19:59:41.430Z,953.46
2023-12-09T20:04:53.490Z,953.63
2023-12-09T20:10:05.492Z,953.72
2023-12-09T20:15:17.524Z,953.81
2023-12-09T20:20:29.685Z,953.84
2023-12-09T20:25:41.641Z,953.9
2023-12-09T20:30:53.642Z,953.87
2023-12-09T20:36:05.676Z,953.97
2023-12-09T20:41:17.943Z,954.09
2023-12-09T20:46:30.188Z,954.13
2023-12-09T20:51:42.328Z,954.22
2023-12-09T20:56:54.393Z,954.11
2023-12-09T21:02:07.397Z,954.23
2023-12-09T21:07:19.424Z,954.29
2023-12-09T21:12:31.687Z,954.36
2023-12-09T21:17:46.554Z,954.35
2023-12-09T21:17:58.656Z,954.35
2023-12-09T21:23:13.181Z,954.66
2023-12-09T21:28:25.182Z,954.74
2023-12-09T21:33:37.325Z,954.89
2023-12-09T21:38:49.419Z,954.96
2023-12-09T21:44:01.373Z,955.31
2023-12-09T21:49:19.309Z,955.55
2023-12-09T21:54:31.426Z,955.62
2023-12-09T21:59:43.434Z,955.75
2023-12-09T22:04:55.467Z,955.79
2023-12-09T22:10:07.507Z,955.67
2023-12-09T22:15:19.485Z,955.83
2023-12-09T22:20:31.646Z,955.88
2023-12-09T22:25:43.749Z,955.96
2023-12-09T22:30:58.869Z,955.99
2023-12-09T22:36:10.947Z,956.09
2023-12-09T22:41:24.116Z,956.03
2023-12-09T22:46:36.227Z,956.15
2023-12-09T22:51:48.243Z,956.41
2023-12-09T22:57:00.333Z,956.66
2023-12-09T23:02:12.313Z,956.99
2023-12-09T23:07:24.264Z,957.18
2023-12-09T23:12:36.314Z,957.11
2023-12-09T23:17:49.982Z,957.25
2023-12-09T23:23:01.996Z,957.29
2023-12-09T23:28:14.089Z,957.36
2023-12-09T23:33:27.502Z,957.6
2023-12-09T23:38:43.615Z,957.81
2023-12-09T23:43:55.585Z,958.23
2023-12-09T23:49:07.782Z,958.45
2023-12-09T23:54:19.868Z,958.59
2023-12-09T23:59:31.929Z,958.78
